메인 페이지
METAR-TAF:

METAR-TAF

공항 :

벨리즈시티, 벨리즈

Phillip Goldston

위도: 17-32N, 경도: 088-18W, 고도: 5m

현재 날씨관측

예보는 5 시간 4분 전, 00:00시(UTC)에 발표되었습니다.
8kt
온도 29°C
습도 79%
기압 1013 hPa
시정 10km 이상
고도 2100ft 상공 구름 조금

METAR: MZBZ 250000Z 10008KT 9999 FEW021 29/25 A2991 Q1013 NOSIG

시각: 23:04 (05:04 UTC)

예보

예보는 8 시간 4분 전, 21:00시(UTC)에 발표되었습니다.
예보 대상 시간: 25일 00시부터 25일 24시까지 (UTC)
8kt
시정 10km 이상
고도 2300ft 상공 구름 보통

TAF: MZBZ 242100Z 2500/2524 09008KT 9999 SCT023

4,000개 이상의 공항 관측 자료 및 예보 (METAR 및 TAF 보고).

지도상에서 검색 가능한 기상관측소가 노란 점과 빨간 점으로 표시되어 있습니다.

기상관측소 명을 보려면 표시 위로 마우스를 이동하세요.

날씨 관측과 예보를 보려면 클릭하세요.

지도 변경 : 확대하려면 엑스 표시가 있는 녹색 버튼, 축소하려면 빼기 표시가 있는 녹색 버튼, 다음 페이지의 지도를 보려면 녹색 화살표를 클릭하세요.


METAR-TAF: